Time;durP1;ratioP1;P1;durP2;ratioP2;P2;SDS_P1;SDS_P2;PMS_P1;PMS_P2;Temp;Humidity;BMP_temperature;BMP_pressure;BME280_temperature;BME280_humidity;BME280_pressure;Samples;Min_cycle;Max_cycle;Signal;HPM_P1;HPM_P2
2022/04/17 00:01:36;;;;;;;25.15;18.38;;;3.50;99.90;;;;;;4971483;28;20073;-54
2022/04/17 00:04:02;;;;;;;24.77;17.48;;;3.40;99.90;;;;;;4972371;28;20490;-51
2022/04/17 00:06:28;;;;;;;22.00;18.00;;;3.40;99.90;;;;;;4970601;28;20058;-52
2022/04/17 00:08:53;;;;;;;24.33;17.30;;;3.40;99.90;;;;;;4971949;28;20035;-51
2022/04/17 00:11:19;;;;;;;24.52;18.30;;;3.40;99.90;;;;;;4971111;28;20023;-52
2022/04/17 00:13:45;;;;;;;23.95;18.05;;;3.30;99.90;;;;;;4971750;28;20453;-51
2022/04/17 00:16:10;;;;;;;27.90;19.90;;;3.20;99.90;;;;;;4971081;28;20023;-54
2022/04/17 00:18:36;;;;;;;24.30;18.60;;;3.20;99.90;;;;;;4971346;28;20035;-49
2022/04/17 00:21:03;;;;;;;25.95;20.45;;;3.10;99.90;;;;;;4970665;28;20038;-54
2022/04/17 00:23:29;;;;;;;26.27;18.98;;;3.10;99.90;;;;;;4971364;28;20054;-52
2022/04/17 00:25:55;;;;;;;26.40;19.33;;;3.00;99.90;;;;;;4971617;28;20109;-54
2022/04/17 00:28:21;;;;;;;27.23;20.45;;;2.90;99.90;;;;;;4971350;28;20553;-53
2022/04/17 00:30:47;;;;;;;24.55;18.58;;;2.90;99.90;;;;;;4971371;28;20080;-53
2022/04/17 00:33:13;;;;;;;24.23;19.10;;;2.80;99.90;;;;;;4971269;28;20062;-54
2022/04/17 00:35:38;;;;;;;24.63;19.02;;;2.80;99.90;;;;;;4970493;28;20642;-55
2022/04/17 00:38:04;;;;;;;27.23;18.67;;;2.70;99.90;;;;;;4971365;28;20046;-51
2022/04/17 00:40:30;;;;;;;26.65;19.73;;;2.70;99.90;;;;;;4968814;28;20268;-55
2022/04/17 00:42:58;;;;;;;27.65;19.13;;;2.70;99.90;;;;;;4971185;28;20089;-54
2022/04/17 00:45:23;;;;;;;23.50;19.02;;;2.70;99.90;;;;;;4971582;28;20030;-52
2022/04/17 00:47:49;;;;;;;22.02;18.50;;;2.60;99.90;;;;;;4970113;28;20576;-52
2022/04/17 00:50:15;;;;;;;22.92;19.27;;;2.60;99.90;;;;;;4970998;28;20073;-55
2022/04/17 00:52:43;;;;;;;25.33;18.80;;;2.50;99.90;;;;;;4970686;28;20023;-49
2022/04/17 00:55:09;;;;;;;28.65;20.02;;;2.50;99.90;;;;;;4971171;28;20031;-49
2022/04/17 00:57:35;;;;;;;26.88;19.10;;;2.40;99.90;;;;;;4970673;28;20019;-53
2022/04/17 01:00:03;;;;;;;24.10;18.05;;;2.40;99.90;;;;;;4968659;28;20035;-53
2022/04/17 01:02:29;;;;;;;23.05;19.70;;;2.40;99.90;;;;;;4968204;28;20034;-49
2022/04/17 01:04:54;;;;;;;25.00;18.60;;;2.40;99.90;;;;;;4970106;28;20031;-50
2022/04/17 01:07:23;;;;;;;23.33;18.17;;;2.30;99.90;;;;;;4970896;28;20520;-52
2022/04/17 01:09:53;;;;;;;25.25;19.23;;;2.30;99.90;;;;;;4970916;28;20034;-52
2022/04/17 01:12:19;;;;;;;26.33;18.55;;;2.30;99.90;;;;;;4951295;29;20026;-50
2022/04/17 01:14:45;;;;;;;24.95;18.38;;;2.30;99.90;;;;;;4959953;28;20031;-51
2022/04/17 01:17:12;;;;;;;25.63;17.55;;;2.30;99.90;;;;;;4970567;28;20437;-54
2022/04/17 01:19:39;;;;;;;22.10;16.83;;;2.30;99.90;;;;;;4971013;28;20023;-55
2022/04/17 01:22:10;;;;;;;24.30;17.25;;;2.30;99.90;;;;;;4971003;28;20027;-52
2022/04/17 01:27:23;;;;;;;26.25;19.05;;;2.30;99.90;;;;;;4970832;28;20162;-51
2022/04/17 01:29:50;;;;;;;29.27;18.30;;;2.30;99.90;;;;;;4970308;28;20049;-51
2022/04/17 01:32:16;;;;;;;23.90;18.23;;;2.30;99.90;;;;;;4969653;28;20109;-52
2022/04/17 01:34:43;;;;;;;24.08;18.48;;;2.30;99.90;;;;;;4970619;28;20573;-50
2022/04/17 01:37:09;;;;;;;27.27;18.55;;;2.30;99.90;;;;;;4970430;28;20034;-51
2022/04/17 01:39:34;;;;;;;22.90;17.52;;;2.30;99.90;;;;;;4970554;28;20498;-53
2022/04/17 01:42:00;;;;;;;26.33;19.00;;;2.20;99.90;;;;;;4970476;28;20027;-49
2022/04/17 01:44:28;;;;;;;25.15;19.55;;;2.20;99.90;;;;;;4970814;28;20050;-51
2022/04/17 01:46:54;;;;;;;24.17;18.27;;;2.10;99.90;;;;;;4970320;28;20445;-50
2022/04/17 01:49:21;;;;;;;30.08;18.65;;;2.10;99.90;;;;;;4969567;28;20485;-49
2022/04/17 01:51:48;;;;;;;26.45;18.65;;;2.10;99.90;;;;;;4970290;28;20037;-51
2022/04/17 01:54:21;;;;;;;32.45;19.10;;;2.10;99.90;;;;;;4970433;28;20458;-52
2022/04/17 01:56:47;;;;;;;24.73;18.50;;;2.10;99.90;;;;;;4970639;28;20231;-52
2022/04/17 01:59:14;;;;;;;27.63;19.35;;;2.10;99.90;;;;;;4970790;28;20057;-51
2022/04/17 02:01:40;;;;;;;28.50;19.27;;;2.00;99.90;;;;;;4966463;28;20046;-55
2022/04/17 02:04:08;;;;;;;26.70;17.65;;;2.00;99.90;;;;;;4981709;28;20556;-50
2022/04/17 02:06:34;;;;;;;28.25;18.23;;;2.00;99.90;;;;;;4985573;28;20030;-52
2022/04/17 02:09:01;;;;;;;25.48;17.52;;;2.00;99.90;;;;;;4970116;28;20124;-50
2022/04/17 02:11:27;;;;;;;25.55;19.02;;;2.00;99.90;;;;;;4970494;28;20066;-51
2022/04/17 02:13:53;;;;;;;22.80;17.38;;;1.90;99.90;;;;;;4970759;28;20034;-50
2022/04/17 02:16:19;;;;;;;25.35;18.35;;;1.90;99.90;;;;;;4969092;28;20023;-51
2022/04/17 02:18:49;;;;;;;23.27;17.27;;;1.90;99.90;;;;;;4970374;28;20113;-52
2022/04/17 02:21:16;;;;;;;20.45;16.77;;;1.90;99.90;;;;;;4969824;28;20031;-53
2022/04/17 02:23:43;;;;;;;23.50;16.50;;;1.90;99.90;;;;;;4968710;28;20110;-53
2022/04/17 02:26:09;;;;;;;21.95;16.08;;;1.90;99.90;;;;;;4969956;28;20039;-52
2022/04/17 02:28:36;;;;;;;22.42;16.30;;;1.90;99.90;;;;;;4970286;28;20052;-51
2022/04/17 02:31:03;;;;;;;23.52;16.08;;;1.90;99.90;;;;;;4973332;28;20023;-52
2022/04/17 02:33:29;;;;;;;21.17;14.68;;;1.80;99.90;;;;;;4973085;28;20027;-51
2022/04/17 02:35:55;;;;;;;21.70;15.55;;;1.80;99.90;;;;;;4973278;28;20029;-50
2022/04/17 02:38:21;;;;;;;22.52;16.08;;;1.80;99.90;;;;;;4973873;28;20027;-49
2022/04/17 02:40:46;;;;;;;21.23;15.77;;;1.70;99.90;;;;;;4973744;28;20795;-55
2022/04/17 02:43:12;;;;;;;23.10;16.33;;;1.70;99.90;;;;;;4973644;28;20031;-52
2022/04/17 02:45:37;;;;;;;22.58;15.45;;;1.70;99.90;;;;;;4973618;28;20085;-55
2022/04/17 02:48:04;;;;;;;21.77;16.08;;;1.60;99.90;;;;;;4973817;28;20035;-52
2022/04/17 02:50:30;;;;;;;23.42;16.65;;;1.60;99.90;;;;;;4973227;28;20401;-51
2022/04/17 02:52:56;;;;;;;18.73;14.70;;;1.60;99.90;;;;;;4973368;28;20034;-49
2022/04/17 02:55:22;;;;;;;19.92;15.40;;;1.50;99.90;;;;;;4973409;28;20023;-54
2022/04/17 02:57:48;;;;;;;18.17;14.43;;;1.50;99.90;;;;;;4973678;28;20031;-55
2022/04/17 03:00:14;;;;;;;22.25;14.43;;;1.50;99.90;;;;;;4973448;28;20115;-54
2022/04/17 03:05:38;;;;;;;21.40;14.43;;;1.50;99.90;;;;;;4973159;28;20519;-55
2022/04/17 03:08:14;;;;;;;18.45;13.48;;;1.60;99.90;;;;;;4971075;28;20033;-52
2022/04/17 03:10:46;;;;;;;21.80;15.13;;;1.60;99.90;;;;;;4967241;28;20057;-53
2022/04/17 03:13:12;;;;;;;21.05;14.68;;;1.60;99.90;;;;;;4972999;28;20019;-51
2022/04/17 03:15:38;;;;;;;20.08;13.63;;;1.60;99.90;;;;;;4973113;28;20062;-54
2022/04/17 03:18:08;;;;;;;19.25;15.48;;;1.50;99.90;;;;;;4972621;28;20035;-53
2022/04/17 03:20:34;;;;;;;19.60;14.70;;;1.50;99.90;;;;;;4972987;28;20031;-53
2022/04/17 03:23:00;;;;;;;21.75;14.43;;;1.40;99.90;;;;;;4972737;28;20037;-53
2022/04/17 03:25:25;;;;;;;20.83;15.27;;;1.40;99.90;;;;;;4973194;28;20453;-53
2022/04/17 03:27:51;;;;;;;23.77;14.77;;;1.40;99.90;;;;;;4972564;28;20034;-54
2022/04/17 03:30:17;;;;;;;21.75;15.80;;;1.30;99.90;;;;;;4971329;28;20035;-50
2022/04/17 03:32:48;;;;;;;22.02;15.20;;;1.30;99.90;;;;;;4972331;28;20081;-51
2022/04/17 03:35:15;;;;;;;18.33;14.68;;;1.30;99.90;;;;;;4972781;28;20023;-53
2022/04/17 03:37:44;;;;;;;17.70;14.02;;;1.20;99.90;;;;;;4972486;28;20034;-51
2022/04/17 03:40:15;;;;;;;20.65;14.43;;;1.20;99.90;;;;;;4971736;28;20057;-54
2022/04/17 03:42:41;;;;;;;22.33;14.85;;;1.20;99.90;;;;;;4971973;28;20031;-52
2022/04/17 03:45:11;;;;;;;19.17;14.60;;;1.10;99.90;;;;;;4971101;28;20023;-54
2022/04/17 03:47:40;;;;;;;19.48;15.90;;;1.10;99.90;;;;;;4972431;28;20035;-55
2022/04/17 03:50:07;;;;;;;21.08;15.68;;;1.10;99.90;;;;;;4972533;28;20026;-50
2022/04/17 03:52:39;;;;;;;19.10;14.50;;;1.10;99.90;;;;;;4972353;28;20023;-54
2022/04/17 03:55:05;;;;;;;22.85;15.80;;;1.00;99.90;;;;;;4971166;28;20674;-52
2022/04/17 03:57:32;;;;;;;19.48;14.63;;;1.00;99.90;;;;;;4972309;28;20175;-50
2022/04/17 03:59:57;;;;;;;20.92;14.40;;;1.00;99.90;;;;;;4972032;28;20044;-53
2022/04/17 04:02:24;;;;;;;22.50;16.27;;;1.00;99.90;;;;;;4972064;28;20035;-55
2022/04/17 04:04:50;;;;;;;22.15;15.25;;;1.00;99.90;;;;;;4972159;28;20050;-54
2022/04/17 04:07:16;;;;;;;20.05;15.63;;;0.90;99.90;;;;;;4970318;28;20494;-51
2022/04/17 04:09:42;;;;;;;21.90;15.30;;;0.90;99.90;;;;;;4972193;28;20027;-52
2022/04/17 04:12:07;;;;;;;22.08;14.73;;;0.90;99.90;;;;;;4971479;28;20129;-53
2022/04/17 04:14:33;;;;;;;20.52;15.02;;;0.90;99.90;;;;;;4971725;28;20027;-55
2022/04/17 04:17:01;;;;;;;19.52;13.80;;;0.80;99.90;;;;;;4971224;28;20062;-53
2022/04/17 04:19:27;;;;;;;21.95;15.05;;;0.80;99.90;;;;;;4970686;28;20027;-54
2022/04/17 04:21:52;;;;;;;20.02;14.55;;;0.80;99.90;;;;;;4971162;28;20043;-51
2022/04/17 04:24:19;;;;;;;20.83;15.10;;;0.80;99.90;;;;;;4971968;28;20085;-52
2022/04/17 04:28:32;;;;;;;20.70;14.18;;;0.80;99.90;;;;;;4970151;28;20030;-51
2022/04/17 04:29:32;;;;;;;21.65;14.90;;;0.70;99.90;;;;;;4971080;28;20039;-52
2022/04/17 04:31:58;;;;;;;18.08;14.43;;;0.70;99.90;;;;;;4971484;28;20033;-56
2022/04/17 04:34:23;;;;;;;20.38;14.00;;;0.70;99.90;;;;;;4970176;28;20420;-51
2022/04/17 04:36:49;;;;;;;19.65;14.15;;;0.70;99.90;;;;;;4971039;28;20038;-53
2022/04/17 04:39:14;;;;;;;18.60;14.10;;;0.70;99.90;;;;;;4971321;28;20520;-51
2022/04/17 04:41:40;;;;;;;19.10;13.73;;;0.70;99.90;;;;;;4971399;28;20696;-50
2022/04/17 04:44:05;;;;;;;14.73;11.80;;;0.70;99.90;;;;;;4971184;28;20596;-52
2022/04/17 04:46:31;;;;;;;16.63;13.10;;;0.70;99.90;;;;;;4971264;28;20105;-51
2022/04/17 04:51:40;;;;;;;16.98;12.85;;;0.60;99.90;;;;;;4970803;28;20041;-55
2022/04/17 04:54:07;;;;;;;15.32;13.10;;;0.70;99.90;;;;;;4971205;28;20026;-55
2022/04/17 04:56:33;;;;;;;17.90;14.10;;;0.60;99.90;;;;;;4971483;28;20034;-53
2022/04/17 04:58:59;;;;;;;17.83;13.73;;;0.70;99.90;;;;;;4970921;28;20023;-53
2022/04/17 05:01:25;;;;;;;19.75;13.48;;;0.70;99.90;;;;;;4970827;28;20030;-55
2022/04/17 05:03:51;;;;;;;20.08;14.32;;;0.60;99.90;;;;;;4971041;28;20038;-53
2022/04/17 05:06:17;;;;;;;15.07;12.13;;;0.70;99.90;;;;;;4971116;28;20038;-52
2022/04/17 05:08:43;;;;;;;19.33;12.93;;;0.70;99.90;;;;;;4971492;28;20038;-52
2022/04/17 05:11:09;;;;;;;18.90;13.05;;;0.70;99.90;;;;;;4970937;28;20039;-51
2022/04/17 05:13:35;;;;;;;15.30;11.70;;;0.70;99.90;;;;;;4971136;28;20019;-53
2022/04/17 05:16:01;;;;;;;12.68;11.23;;;0.80;99.90;;;;;;4970975;28;20126;-52
2022/04/17 05:18:26;;;;;;;14.98;11.73;;;0.80;99.90;;;;;;4970423;28;20496;-53
2022/04/17 05:20:53;;;;;;;15.02;11.27;;;0.90;99.90;;;;;;4970935;28;20126;-52
2022/04/17 05:23:37;;;;;;;16.40;10.73;;;0.90;99.90;;;;;;4970913;28;20139;-52
2022/04/17 05:26:03;;;;;;;15.52;11.98;;;1.00;99.90;;;;;;4969304;28;20023;-50
2022/04/17 05:28:30;;;;;;;13.07;11.40;;;1.10;99.90;;;;;;4970664;28;20113;-53
2022/04/17 05:30:56;;;;;;;13.77;10.20;;;1.20;99.90;;;;;;4970560;28;20058;-53
2022/04/17 05:33:22;;;;;;;14.10;10.73;;;1.20;99.90;;;;;;4970538;28;20031;-51
2022/04/17 05:35:48;;;;;;;14.18;10.50;;;1.30;99.90;;;;;;4970550;28;20031;-54
2022/04/17 05:38:15;;;;;;;14.38;10.40;;;1.40;99.90;;;;;;4970813;28;20171;-54
2022/04/17 05:40:42;;;;;;;14.70;11.20;;;1.50;99.90;;;;;;4970635;28;20037;-51
2022/04/17 05:43:08;;;;;;;15.85;12.48;;;1.60;99.90;;;;;;4970425;28;20027;-52
2022/04/17 05:45:35;;;;;;;15.90;11.68;;;1.60;99.90;;;;;;4970516;28;20030;-52
2022/04/17 05:48:00;;;;;;;17.10;12.00;;;1.70;99.90;;;;;;4970478;28;20110;-51
2022/04/17 05:50:28;;;;;;;16.13;11.18;;;1.80;99.90;;;;;;4970383;28;20046;-50
2022/04/17 05:52:54;;;;;;;16.33;11.55;;;1.90;99.90;;;;;;4970415;28;20033;-50
2022/04/17 05:55:20;;;;;;;16.15;12.30;;;2.00;99.90;;;;;;4970390;28;20540;-51
2022/04/17 05:57:45;;;;;;;18.67;12.77;;;2.10;99.90;;;;;;4970284;28;20034;-50
2022/04/17 06:00:11;;;;;;;15.70;12.07;;;2.20;99.90;;;;;;4970259;28;20031;-50
2022/04/17 06:02:38;;;;;;;15.60;12.18;;;2.30;99.90;;;;;;4970805;28;20841;-52
2022/04/17 06:05:05;;;;;;;16.63;11.95;;;2.30;99.90;;;;;;4972996;28;20493;-53
2022/04/17 06:07:31;;;;;;;16.58;12.90;;;2.40;99.90;;;;;;4974123;28;20034;-54
2022/04/17 06:10:02;;;;;;;17.27;14.32;;;2.50;99.90;;;;;;4974215;28;20042;-56
2022/04/17 06:12:27;;;;;;;18.75;12.73;;;2.60;99.90;;;;;;4972472;28;20057;-54
2022/04/17 06:14:53;;;;;;;17.60;13.45;;;2.70;99.90;;;;;;4974352;28;20062;-53
2022/04/17 06:17:18;;;;;;;15.65;11.35;;;2.80;99.90;;;;;;4972847;28;20058;-51
2022/04/17 06:19:44;;;;;;;16.05;11.75;;;2.90;99.90;;;;;;4973872;28;20066;-54
2022/04/17 06:22:11;;;;;;;17.55;11.43;;;3.10;99.90;;;;;;4973928;28;20054;-55
2022/04/17 06:24:36;;;;;;;16.52;11.02;;;3.20;99.90;;;;;;4974520;28;20037;-51
2022/04/17 06:27:02;;;;;;;11.07;9.48;;;3.30;99.90;;;;;;4973772;28;20393;-50
2022/04/17 06:29:28;;;;;;;16.75;10.30;;;3.40;99.90;;;;;;4973795;28;20046;-50
2022/04/17 06:31:53;;;;;;;14.13;9.23;;;3.50;99.90;;;;;;4973158;28;20027;-52
2022/04/17 06:34:19;;;;;;;12.35;8.55;;;3.70;99.90;;;;;;4973826;28;20130;-54
2022/04/17 06:36:44;;;;;;;12.23;8.07;;;3.80;99.90;;;;;;4973894;28;20097;-52
2022/04/17 06:39:10;;;;;;;11.02;6.25;;;3.90;99.90;;;;;;4973444;28;20102;-51
2022/04/17 06:41:36;;;;;;;10.73;7.38;;;4.10;99.90;;;;;;4973727;28;20669;-53
2022/04/17 06:44:02;;;;;;;11.15;7.93;;;4.30;99.90;;;;;;4973689;28;20054;-50
2022/04/17 06:46:27;;;;;;;10.07;8.25;;;4.40;99.90;;;;;;4973239;28;20706;-50
2022/04/17 06:48:53;;;;;;;10.50;8.10;;;4.50;99.90;;;;;;4973515;28;20556;-52
2022/04/17 06:51:23;;;;;;;12.07;7.43;;;4.80;99.90;;;;;;4973085;28;20030;-51
2022/04/17 06:53:52;;;;;;;14.38;8.63;;;5.00;99.90;;;;;;4973404;28;20053;-54
2022/04/17 06:56:18;;;;;;;11.75;8.13;;;5.20;99.90;;;;;;4972955;28;20027;-54
2022/04/17 06:58:48;;;;;;;11.10;7.90;;;5.50;99.90;;;;;;4973758;28;20027;-53
2022/04/17 07:01:17;;;;;;;10.30;7.65;;;5.80;99.90;;;;;;4972538;28;20039;-54
2022/04/17 07:03:44;;;;;;;7.38;6.20;;;6.10;99.90;;;;;;4973639;28;20031;-49
2022/04/17 07:06:09;;;;;;;7.13;5.38;;;6.40;99.90;;;;;;4973015;28;20113;-53
2022/04/17 07:08:35;;;;;;;7.00;5.63;;;6.70;99.90;;;;;;4973480;28;20422;-55
2022/04/17 07:11:01;;;;;;;7.75;5.63;;;7.00;99.90;;;;;;4973212;28;20031;-54
2022/04/17 07:13:26;;;;;;;5.32;4.40;;;7.30;99.90;;;;;;4973019;28;20065;-54
2022/04/17 07:15:52;;;;;;;4.75;3.90;;;7.70;99.90;;;;;;4970945;28;20053;-51
2022/04/17 07:18:19;;;;;;;4.43;3.40;;;8.00;99.90;;;;;;4971177;28;20101;-54
2022/04/17 07:20:45;;;;;;;3.80;3.20;;;8.20;99.90;;;;;;4972928;28;20049;-55
2022/04/17 07:23:11;;;;;;;4.47;3.50;;;8.50;99.90;;;;;;4972717;28;20027;-54
2022/04/17 07:25:36;;;;;;;4.38;3.30;;;8.80;99.90;;;;;;4972704;28;20121;-52
2022/04/17 07:28:03;;;;;;;4.65;3.03;;;9.00;99.50;;;;;;4973168;28;20031;-52
2022/04/17 07:30:30;;;;;;;3.67;2.70;;;9.30;97.50;;;;;;4973014;28;20037;-55
2022/04/17 07:32:58;;;;;;;3.83;3.10;;;9.50;98.10;;;;;;4972555;28;20065;-53
2022/04/17 07:35:26;;;;;;;4.50;2.85;;;9.70;99.00;;;;;;4972880;28;20401;-55
2022/04/17 07:37:56;;;;;;;3.20;2.58;;;10.00;98.40;;;;;;4972267;28;20038;-55
2022/04/17 07:40:29;;;;;;;2.53;2.33;;;10.20;98.60;;;;;;4972869;28;20018;-55
2022/04/17 07:42:56;;;;;;;3.47;2.72;;;10.50;95.60;;;;;;4971513;28;20030;-55
2022/04/17 07:45:23;;;;;;;3.25;2.33;;;10.70;93.50;;;;;;4973107;28;20394;-56
2022/04/17 07:47:52;;;;;;;2.97;2.03;;;10.90;92.80;;;;;;4972944;28;20031;-54
2022/04/17 07:50:26;;;;;;;3.13;2.17;;;11.10;90.50;;;;;;4972069;28;20058;-55
2022/04/17 07:52:53;;;;;;;2.38;1.90;;;11.40;92.90;;;;;;4972243;28;20042;-53
2022/04/17 07:55:19;;;;;;;2.60;2.17;;;11.60;91.70;;;;;;4972449;28;20031;-57
2022/04/17 08:00:35;;;;;;;4.70;2.13;;;11.90;85.40;;;;;;4972073;28;20509;-55
2022/04/17 08:03:08;;;;;;;1.58;1.48;;;12.00;80.70;;;;;;4971633;28;20037;-51
2022/04/17 08:05:38;;;;;;;2.35;2.05;;;12.10;82.20;;;;;;4969778;28;20094;-54
2022/04/17 08:08:06;;;;;;;4.05;2.35;;;12.40;82.60;;;;;;4954290;28;20148;-55
2022/04/17 08:10:32;;;;;;;4.43;2.65;;;12.50;82.40;;;;;;4966717;28;20054;-50
2022/04/17 08:12:57;;;;;;;2.20;1.98;;;12.70;79.00;;;;;;4965530;28;20035;-56
2022/04/17 08:15:23;;;;;;;2.70;2.20;;;12.80;77.10;;;;;;4956729;28;20034;-54
2022/04/17 08:17:48;;;;;;;2.60;2.10;;;13.00;79.40;;;;;;4971548;28;20093;-55
2022/04/17 08:20:14;;;;;;;2.38;2.17;;;13.10;72.40;;;;;;4971988;28;20031;-50
2022/04/17 08:22:39;;;;;;;4.43;2.10;;;13.20;71.80;;;;;;4971708;28;20035;-52
2022/04/17 08:25:06;;;;;;;3.10;2.08;;;13.30;75.60;;;;;;4971420;28;20030;-53
2022/04/17 08:27:31;;;;;;;3.65;1.90;;;13.40;71.20;;;;;;4971033;28;20031;-55
2022/04/17 08:29:57;;;;;;;2.95;2.20;;;13.60;73.00;;;;;;4970968;28;20035;-53
2022/04/17 08:32:22;;;;;;;3.20;2.22;;;13.70;69.20;;;;;;4971199;28;20023;-51
2022/04/17 08:34:48;;;;;;;2.25;1.67;;;13.80;72.10;;;;;;4970929;28;20031;-54
2022/04/17 08:37:13;;;;;;;2.83;1.75;;;13.90;68.00;;;;;;4971312;28;20051;-53
2022/04/17 08:39:39;;;;;;;2.65;1.65;;;14.00;69.40;;;;;;4969669;28;20030;-52
2022/04/17 08:42:05;;;;;;;2.92;2.15;;;14.10;67.20;;;;;;4973113;28;20031;-55
2022/04/17 08:44:31;;;;;;;2.15;1.75;;;14.30;69.20;;;;;;4982230;28;20535;-52
2022/04/17 08:46:57;;;;;;;2.80;1.75;;;14.40;64.90;;;;;;4986100;28;20042;-55
2022/04/17 08:49:24;;;;;;;2.10;1.90;;;14.60;63.50;;;;;;4969139;28;20034;-53
2022/04/17 08:51:53;;;;;;;2.75;1.70;;;14.70;63.40;;;;;;4971154;28;20023;-56
2022/04/17 08:54:20;;;;;;;1.63;1.52;;;14.70;63.80;;;;;;4971235;28;20050;-53
2022/04/17 08:56:45;;;;;;;1.58;1.48;;;14.90;64.90;;;;;;4971367;28;20023;-55
2022/04/17 08:59:11;;;;;;;2.58;2.00;;;14.90;65.20;;;;;;4971583;28;20026;-54
2022/04/17 09:01:37;;;;;;;3.80;2.30;;;15.00;62.20;;;;;;4971127;28;20445;-55
2022/04/17 09:04:03;;;;;;;2.90;1.70;;;15.00;59.70;;;;;;4970363;28;20042;-56
2022/04/17 09:06:29;;;;;;;2.30;1.58;;;15.00;63.00;;;;;;4970710;28;20026;-54
2022/04/17 09:09:03;;;;;;;2.30;2.05;;;15.20;63.30;;;;;;4970742;28;20031;-57
2022/04/17 09:11:30;;;;;;;4.13;2.10;;;15.40;63.80;;;;;;4970869;28;20038;-54
2022/04/17 09:13:57;;;;;;;3.33;2.17;;;15.60;63.50;;;;;;4970773;28;20788;-54
2022/04/17 09:16:31;;;;;;;2.13;1.63;;;15.80;60.30;;;;;;4969993;28;20063;-56
2022/04/17 09:18:57;;;;;;;2.08;1.58;;;15.90;60.10;;;;;;4970839;28;20030;-57
2022/04/17 09:21:33;;;;;;;2.38;2.00;;;16.00;59.50;;;;;;4970907;28;20482;-57
2022/04/17 09:24:18;;;;;;;;;;;16.00;61.60;;;;;;4970435;28;20034;-56
2022/04/17 09:26:52;;;;;;;2.38;2.00;;;16.00;57.10;;;;;;4970006;28;20029;-53
2022/04/17 09:29:19;;;;;;;2.63;1.85;;;16.00;58.40;;;;;;4969828;28;20031;-56
2022/04/17 09:31:45;;;;;;;2.90;1.75;;;16.00;56.20;;;;;;4970079;28;20035;-53
2022/04/17 09:34:11;;;;;;;2.90;1.65;;;16.10;60.70;;;;;;4971247;28;20608;-54
2022/04/17 09:36:37;;;;;;;2.03;1.55;;;16.20;55.80;;;;;;4970633;28;20045;-53
2022/04/17 09:39:14;;;;;;;3.80;1.80;;;16.20;57.00;;;;;;4970025;28;20501;-56
2022/04/17 09:41:57;;;;;;;2.63;1.85;;;16.40;56.30;;;;;;4970511;28;20027;-53
2022/04/17 09:44:34;;;;;;;2.60;1.73;;;16.50;55.80;;;;;;4970741;28;20027;-54
2022/04/17 09:47:00;;;;;;;2.17;2.03;;;16.50;57.70;;;;;;4970495;28;20074;-50
2022/04/17 09:49:26;;;;;;;2.97;2.03;;;16.60;55.40;;;;;;4970540;28;20030;-53
2022/04/17 09:52:06;;;;;;;4.07;2.38;;;16.70;57.80;;;;;;4968727;28;20389;-52
2022/04/17 09:54:32;;;;;;;3.22;2.00;;;16.60;54.10;;;;;;4969942;28;20095;-51
2022/04/17 09:56:57;;;;;;;3.85;2.03;;;16.70;54.00;;;;;;4974694;28;20839;-55
2022/04/17 09:59:24;;;;;;;2.95;2.25;;;16.80;56.90;;;;;;4972604;28;20039;-54
2022/04/17 10:01:52;;;;;;;3.25;2.22;;;16.80;55.90;;;;;;4970017;28;20597;-56
2022/04/17 10:04:21;;;;;;;2.33;2.13;;;17.00;55.50;;;;;;4971972;28;20108;-55
2022/04/17 10:06:48;;;;;;;2.20;2.00;;;17.10;54.30;;;;;;4973634;28;20114;-53
2022/04/17 10:09:14;;;;;;;4.18;2.30;;;17.00;54.80;;;;;;4968369;28;20023;-54
2022/04/17 10:11:40;;;;;;;2.95;1.95;;;17.00;55.60;;;;;;4969181;28;20034;-52
2022/04/17 10:14:07;;;;;;;2.40;2.00;;;17.00;54.00;;;;;;4973833;28;20066;-53
2022/04/17 10:16:34;;;;;;;2.88;2.22;;;17.10;55.70;;;;;;4971275;28;20668;-55
2022/04/17 10:19:11;;;;;;;3.33;2.55;;;17.10;54.60;;;;;;4978652;28;20397;-54
2022/04/17 10:21:39;;;;;;;3.25;2.22;;;17.10;54.20;;;;;;4970345;28;20027;-55
2022/04/17 10:24:10;;;;;;;5.47;2.30;;;17.20;52.10;;;;;;4968956;28;20057;-56
2022/04/17 10:26:44;;;;;;;4.03;2.05;;;17.10;53.50;;;;;;4970208;28;20031;-55
2022/04/17 10:29:15;;;;;;;2.10;1.80;;;17.10;55.10;;;;;;4969928;28;20035;-58
2022/04/17 10:32:16;;;;;;;4.43;1.90;;;17.10;53.20;;;;;;4970219;28;20409;-52
2022/04/17 10:34:53;;;;;;;2.10;1.90;;;17.10;51.50;;;;;;4970280;28;20031;-54
2022/04/17 10:37:43;;;;;;;3.00;1.83;;;17.20;50.50;;;;;;4970148;28;20034;-52
2022/04/17 10:40:10;;;;;;;2.42;2.22;;;17.20;52.90;;;;;;4969957;28;20026;-53
2022/04/17 10:42:52;;;;;;;2.70;1.88;;;17.20;53.90;;;;;;4969916;28;20493;-58
2022/04/17 10:45:18;;;;;;;6.18;1.88;;;17.20;54.20;;;;;;4969951;28;20038;-56
2022/04/17 10:48:05;;;;;;;2.47;1.60;;;17.10;51.00;;;;;;4970079;28;20440;-53
2022/04/17 10:51:03;;;;;;;3.78;1.90;;;17.00;54.20;;;;;;4972106;28;20041;-51
2022/04/17 10:53:30;;;;;;;2.25;1.63;;;17.00;53.80;;;;;;4973084;28;20118;-54
2022/04/17 10:56:07;;;;;;;1.92;1.25;;;16.90;49.30;;;;;;4973454;28;20023;-52
2022/04/17 10:58:45;;;;;;;1.98;1.40;;;16.80;51.40;;;;;;4971411;28;20027;-56
2022/04/17 11:01:11;;;;;;;1.58;1.48;;;16.70;49.80;;;;;;4972532;28;20033;-58
2022/04/17 11:03:37;;;;;;;1.35;1.25;;;16.60;48.20;;;;;;4973535;28;20130;-57
2022/04/17 11:06:32;;;;;;;1.15;1.05;;;16.70;48.90;;;;;;4973469;28;20118;-56
2022/04/17 11:09:09;;;;;;;2.15;1.10;;;16.80;48.20;;;;;;4973088;28;20026;-57
2022/04/17 11:11:36;;;;;;;0.65;0.65;;;16.80;51.00;;;;;;4973287;28;20034;-57
2022/04/17 11:14:08;;;;;;;1.08;0.90;;;16.80;50.00;;;;;;4973620;28;20099;-53
2022/04/17 11:17:00;;;;;;;2.47;1.00;;;16.90;50.40;;;;;;4972625;28;20158;-57
2022/04/17 11:19:29;;;;;;;2.05;1.30;;;17.00;50.00;;;;;;4971989;28;20038;-57
2022/04/17 11:21:59;;;;;;;1.10;0.95;;;17.10;51.50;;;;;;4972976;28;20039;-56
2022/04/17 11:24:27;;;;;;;1.90;1.10;;;17.10;46.90;;;;;;4973346;28;20393;-54
2022/04/17 11:26:53;;;;;;;1.58;1.35;;;16.90;49.50;;;;;;4973321;28;20031;-58
2022/04/17 11:29:38;;;;;;;1.10;1.00;;;17.00;52.10;;;;;;4973124;28;20026;-58
2022/04/17 11:32:18;;;;;;;2.17;1.10;;;17.10;52.30;;;;;;4973430;28;20497;-57
2022/04/17 11:34:54;;;;;;;0.88;0.88;;;17.20;51.30;;;;;;4972293;28;20042;-56
2022/04/17 11:37:20;;;;;;;;;;;17.20;48.50;;;;;;4972048;28;20050;-57
2022/04/17 11:39:46;;;;;;;1.65;0.73;;;17.30;48.20;;;;;;4972554;28;19914;-57
2022/04/17 11:42:12;;;;;;;3.28;1.33;;;17.30;49.30;;;;;;4971771;28;20030;-53
2022/04/17 11:44:44;;;;;;;1.42;1.08;;;17.30;48.30;;;;;;4972151;28;20076;-55
2022/04/17 11:47:28;;;;;;;0.70;0.70;;;17.20;48.50;;;;;;4972081;28;20037;-54
2022/04/17 11:49:54;;;;;;;1.00;0.90;;;17.10;50.50;;;;;;4972594;28;20069;-53
2022/04/17 11:52:21;;;;;;;1.10;0.90;;;17.10;48.80;;;;;;4972063;28;20489;-53
2022/04/17 11:54:48;;;;;;;1.52;0.82;;;17.20;52.70;;;;;;4972518;28;20031;-55
2022/04/17 11:57:14;;;;;;;1.15;1.05;;;17.30;49.80;;;;;;4971990;28;20034;-55
2022/04/17 12:00:00;;;;;;;1.00;0.90;;;17.30;48.70;;;;;;4972234;28;20052;-54
2022/04/17 12:02:27;;;;;;;3.42;1.50;;;17.40;50.90;;;;;;4971184;28;20034;-57
2022/04/17 12:05:13;;;;;;;1.75;0.85;;;17.40;49.80;;;;;;4972466;28;20027;-53
2022/04/17 12:07:41;;;;;;;2.05;1.00;;;17.30;48.80;;;;;;4972385;28;20030;-56
2022/04/17 12:10:14;;;;;;;2.25;1.25;;;17.20;48.00;;;;;;4972382;28;20038;-54
2022/04/17 12:12:44;;;;;;;1.38;1.15;;;17.30;47.90;;;;;;4971270;28;20565;-55
2022/04/17 12:15:15;;;;;;;2.05;0.70;;;17.40;50.60;;;;;;4971981;28;20409;-56
2022/04/17 12:17:41;;;;;;;1.35;1.10;;;17.60;49.50;;;;;;4972399;28;20102;-55
2022/04/17 12:20:14;;;;;;;1.42;1.10;;;17.70;48.20;;;;;;4970756;28;20050;-55
2022/04/17 12:22:42;;;;;;;1.33;0.68;;;17.90;49.00;;;;;;4970500;28;20035;-53
2022/04/17 12:25:22;;;;;;;2.22;1.10;;;17.90;46.90;;;;;;4971726;28;20034;-54
2022/04/17 12:27:48;;;;;;;0.80;0.80;;;18.00;46.00;;;;;;4970685;28;20101;-56
2022/04/17 12:30:22;;;;;;;1.38;0.68;;;18.00;46.20;;;;;;4971784;28;20041;-58
2022/04/17 12:32:48;;;;;;;1.63;1.33;;;18.10;47.50;;;;;;4971754;28;20118;-55
2022/04/17 12:35:21;;;;;;;1.45;0.90;;;18.20;48.00;;;;;;4969763;28;20624;-56
2022/04/17 12:37:47;;;;;;;1.40;0.80;;;18.30;46.00;;;;;;4971441;28;20694;-54
2022/04/17 12:40:18;;;;;;;1.88;1.00;;;18.30;48.70;;;;;;4971762;28;20078;-55
2022/04/17 12:42:44;;;;;;;3.15;2.42;;;18.30;48.80;;;;;;4971445;28;20015;-52
2022/04/17 12:45:21;;;;;;;2.10;1.50;;;18.30;46.80;;;;;;4971549;28;20478;-56
2022/04/17 12:48:00;;;;;;;3.95;3.55;;;18.30;47.50;;;;;;4971804;28;20023;-55
2022/04/17 12:50:25;;;;;;;2.58;1.42;;;18.40;46.50;;;;;;4971870;28;20063;-55
2022/04/17 12:52:56;;;;;;;1.08;0.98;;;18.40;45.60;;;;;;4971042;28;20069;-57
2022/04/17 12:55:34;;;;;;;2.75;1.00;;;18.50;44.70;;;;;;4971729;28;20019;-54
2022/04/17 12:58:04;;;;;;;1.48;0.98;;;18.00;45.50;;;;;;4971299;28;20393;-56
2022/04/17 13:00:30;;;;;;;1.17;0.70;;;18.00;50.20;;;;;;4971209;28;20026;-57